Saudade — WDJ2054 — position and weather

sailwx.info

Track history (hours):
 
Tides and Currents Weather Stations Pressure Air Temp Water Temp Dewpoint Dewpoint Depression Visibility Wind Speed Wind Dir Waves Ship Positions

Saudade

Owner: Osterman, Rob S, Bainbridge Island, WA. More information available from US FCC via Universal Licensing System and Coast Guard Vessel Documentation Center.

Last reported at 2017-Dec-18 06:29 UTC. Time now 2017-Dec-18 06:46 UTC.
Position N 47°41' W 122°24'.

Length 13 m.

Type: Sailing vessel. MMSI: 367754820.

Date/timePositionNaut miles runAvg speedWind from/ knotsBaromVisibWave heightAir tempDewpointWater temp
2017-Dec-18 06:29N 47°41' W 122°24'0 0.0
2017-Dec-18 05:58N 47°41' W 122°24'0 0.0
2017-Dec-18 05:25N 47°41' W 122°24'0 0.0
2017-Dec-18 04:58N 47°41' W 122°24'0 0.0
2017-Dec-18 04:29N 47°41' W 122°24'0 0.0
2017-Dec-18 03:58N 47°41' W 122°24'0 0.0
2017-Dec-18 03:28N 47°41' W 122°24'0 0.0
2017-Dec-18 02:58N 47°41' W 122°24'0 0.0
2017-Dec-18 02:28N 47°41' W 122°24'0 0.0
2017-Dec-18 01:58N 47°41' W 122°24'0 0.0
2017-Dec-18 01:28N 47°41' W 122°24'0 0.0
2017-Dec-18 00:58N 47°41' W 122°24'0 0.0
2017-Dec-18 00:28N 47°41' W 122°24'0 0.0
2017-Dec-17 23:58N 47°41' W 122°24'0 0.0
2017-Dec-17 23:28N 47°41' W 122°24'0 0.0
2017-Dec-17 22:58N 47°41' W 122°24'0 0.0
2017-Dec-17 22:25N 47°41' W 122°24'0 0.0
2017-Dec-17 21:58N 47°41' W 122°24'0 0.0
2017-Dec-17 21:28N 47°41' W 122°24'0 0.0
2017-Dec-17 20:58N 47°41' W 122°24'0 0.0
2017-Dec-17 20:28N 47°41' W 122°24'0 0.0
2017-Dec-17 19:58N 47°41' W 122°24'0 0.0
2017-Dec-17 19:28N 47°41' W 122°24'0 0.0
2017-Dec-17 18:58N 47°41' W 122°24'0 0.0
2017-Dec-17 18:28N 47°41' W 122°24'0 0.0
2017-Dec-17 17:58N 47°41' W 122°24'0 0.0
2017-Dec-17 17:25N 47°41' W 122°24'0 0.0
2017-Dec-17 16:55N 47°41' W 122°24'0 0.0
2017-Dec-17 16:28N 47°41' W 122°24'0 0.0
2017-Dec-17 15:58N 47°41' W 122°24'0 0.0
2017-Dec-17 15:28N 47°41' W 122°24'0 0.0
2017-Dec-17 14:58N 47°41' W 122°24'0 0.0
2017-Dec-17 14:28N 47°41' W 122°24'0 0.0
2017-Dec-17 13:58N 47°41' W 122°24'0 0.0
2017-Dec-17 13:28N 47°41' W 122°24'0 0.0
2017-Dec-17 12:58N 47°41' W 122°24'0 0.0
2017-Dec-17 12:28N 47°41' W 122°24'0 0.0
2017-Dec-17 11:58N 47°41' W 122°24'0 0.0
2017-Dec-17 11:28N 47°41' W 122°24'0 0.0
2017-Dec-17 11:01N 47°41' W 122°24'0 0.0
2017-Dec-17 10:30N 47°41' W 122°24'0 0.0
2017-Dec-17 10:00N 47°41' W 122°24'0 0.0
2017-Dec-17 09:30N 47°41' W 122°24'0 0.0
2017-Dec-17 09:00N 47°41' W 122°24'0 0.0
2017-Dec-17 08:30N 47°41' W 122°24'0 0.0
2017-Dec-17 07:57N 47°41' W 122°24'0 0.0
2017-Dec-17 07:30N 47°41' W 122°24'0 0.0
2017-Dec-17 07:00N 47°41' W 122°24'0 0.0
2017-Dec-17 06:30N 47°41' W 122°24'0 0.0
2017-Dec-17 06:00N 47°41' W 122°24'0 0.0
2017-Dec-17 05:30N 47°41' W 122°24'0 0.0
2017-Dec-17 05:00N 47°41' W 122°24'0 0.0
2017-Dec-17 04:30N 47°41' W 122°24'0 0.0
2017-Dec-17 04:00N 47°41' W 122°24'0 0.0
2017-Dec-17 03:30N 47°41' W 122°24'0 0.0
2017-Dec-17 03:00N 47°41' W 122°24'0 0.0
2017-Dec-17 02:30N 47°41' W 122°24'0 0.0
2017-Dec-17 02:00N 47°41' W 122°24'0 0.0
2017-Dec-17 01:30N 47°41' W 122°24'0 0.0
2017-Dec-17 01:00N 47°41' W 122°24'0 0.0
2017-Dec-17 00:30N 47°41' W 122°24'0 0.0
2017-Dec-17 00:00N 47°41' W 122°24'0 0.0
2017-Dec-16 23:27N 47°41' W 122°24'0 0.0
2017-Dec-16 22:57N 47°41' W 122°24'0 0.0
2017-Dec-16 22:30N 47°41' W 122°24'3 6.3
2017-Dec-16 22:00N 47°44' W 122°26'4 7.6
2017-Dec-16 21:30N 47°47' W 122°28'4 7.9
2017-Dec-16 20:59N 47°51' W 122°29'4 8.1
2017-Dec-16 20:28N 47°55' W 122°31'40 1.7
2017-Dec-15 21:18N 48°16' W 123°22'2 7.0
2017-Dec-15 21:00N 48°18' W 123°23'3 6.9
2017-Dec-15 20:30N 48°21' W 123°23'4 7.3
2017-Dec-15 20:00N 48°25' W 123°24'1 2.3
2017-Dec-15 19:28N 48°25' W 123°22'0 0.0
2017-Dec-15 18:58N 48°25' W 123°22'0 0.0
2017-Dec-15 18:25N 48°25' W 123°22'0 0.0
2017-Dec-15 17:58N 48°25' W 123°22'0 0.0
2017-Dec-15 17:28N 48°25' W 123°22'0 0.0
2017-Dec-15 16:55N 48°25' W 123°22'0 0.0
2017-Dec-15 16:28N 48°25' W 123°22'0 0.0
2017-Dec-15 15:58N 48°25' W 123°22'0 0.0
2017-Dec-15 15:28N 48°25' W 123°22'0 0.0
2017-Dec-15 14:58N 48°25' W 123°22'0 0.0
2017-Dec-15 14:28N 48°25' W 123°22'0 0.0
2017-Dec-15 13:58N 48°25' W 123°22'0 0.0
2017-Dec-15 13:28N 48°25' W 123°22'0 0.0
2017-Dec-15 12:58N 48°25' W 123°22'0 0.0
2017-Dec-15 12:28N 48°25' W 123°22'0 0.0
2017-Dec-15 11:58N 48°25' W 123°22'0 0.0
2017-Dec-15 11:28N 48°25' W 123°22'0 0.0
2017-Dec-15 10:52N 48°25' W 123°22'0 0.0
2017-Dec-15 10:28N 48°25' W 123°22'0 0.0
2017-Dec-15 09:58N 48°25' W 123°22'0 0.0
2017-Dec-15 09:25N 48°25' W 123°22'0 0.0
2017-Dec-15 08:58N 48°25' W 123°22'0 0.0
2017-Dec-15 08:28N 48°25' W 123°22'0 0.0
2017-Dec-15 07:58N 48°25' W 123°22'0 0.0
2017-Dec-15 07:28N 48°25' W 123°22'0 0.0
2017-Dec-15 06:58N 48°25' W 123°22'0 0.0
2017-Dec-15 06:28N 48°25' W 123°22'0 0.0
2017-Dec-15 05:55N 48°25' W 123°22'0 0.0
2017-Dec-15 05:28N 48°25' W 123°22'0 0.0
2017-Dec-15 04:58N 48°25' W 123°22'0 0.0
2017-Dec-15 04:28N 48°25' W 123°22'0 0.0
2017-Dec-15 03:58N 48°25' W 123°22'0 0.0
2017-Dec-15 02:28N 48°25' W 123°22'0 0.0
2017-Dec-15 00:58N 48°25' W 123°22'0 0.0
2017-Dec-15 00:28N 48°25' W 123°22'0 0.0
2017-Dec-14 18:28N 48°25' W 123°22'0 0.0
2017-Dec-14 17:58N 48°25' W 123°22'0 0.0
2017-Dec-14 17:25N 48°25' W 123°22'0 0.0
2017-Dec-14 16:58N 48°25' W 123°22'0 0.0
2017-Dec-14 16:28N 48°25' W 123°22'0 0.0
2017-Dec-14 15:58N 48°25' W 123°22'0 0.0
2017-Dec-14 14:58N 48°25' W 123°22'0 0.0
2017-Dec-14 14:28N 48°25' W 123°22'0 0.0
2017-Dec-14 13:58N 48°25' W 123°22'0 0.0
2017-Dec-14 13:28N 48°25' W 123°22'0 0.0
2017-Dec-14 12:58N 48°25' W 123°22'0 0.0
2017-Dec-14 12:28N 48°25' W 123°22'0 0.0
2017-Dec-14 11:58N 48°25' W 123°22'0 0.0
2017-Dec-14 11:28N 48°25' W 123°22'0 0.0
2017-Dec-14 10:58N 48°25' W 123°22'0 0.0
2017-Dec-14 10:28N 48°25' W 123°22'0 0.0
2017-Dec-14 09:58N 48°25' W 123°22'0 0.0
2017-Dec-14 09:28N 48°25' W 123°22'0 0.0
2017-Dec-14 08:58N 48°25' W 123°22'0 0.0
2017-Dec-14 08:28N 48°25' W 123°22'0 0.0
2017-Dec-14 07:58N 48°25' W 123°22'0 0.0
2017-Dec-14 07:28N 48°25' W 123°22'0 0.0
2017-Dec-14 06:58N 48°25' W 123°22'0 0.0
2017-Dec-14 06:28N 48°25' W 123°22'0 0.0
2017-Dec-14 05:58N 48°25' W 123°22'0 0.0
2017-Dec-14 05:28N 48°25' W 123°22'0 0.0
2017-Dec-14 04:55N 48°25' W 123°22'0 0.0
2017-Dec-14 04:28N 48°25' W 123°22'0 0.0
2017-Dec-14 03:58N 48°25' W 123°22'0 0.0
2017-Dec-14 03:25N 48°25' W 123°22'0 0.0
2017-Dec-14 02:58N 48°25' W 123°22'0 0.0
2017-Dec-14 02:25N 48°25' W 123°22'0 0.0
2017-Dec-14 01:58N 48°25' W 123°22'0 0.0
2017-Dec-14 01:28N 48°25' W 123°22'0 0.0
2017-Dec-14 00:58N 48°25' W 123°22'0 0.0
2017-Dec-14 00:28N 48°25' W 123°22'0 1.0
2017-Dec-14 00:00N 48°25' W 123°23'2 4.8
2017-Dec-13 23:30N 48°23' W 123°21'4 8.6
2017-Dec-13 23:00N 48°21' W 123°15'37 1.6
2017-Dec-13 00:40N 47°57' W 122°33'2 9.5
2017-Dec-13 00:28N 47°56' W 122°32'4 8.4
2017-Dec-13 00:00N 47°52' W 122°30'4 7.5
2017-Dec-12 23:30N 47°49' W 122°28'1 2.5
2017-Dec-12 22:58N 47°48' W 122°30'2 5.2
2017-Dec-12 22:30N 47°46' W 122°28'3 7.1
2017-Dec-12 22:00N 47°43' W 122°31'0 0.0
2017-Dec-12 03:55N 47°43' W 122°31'3 6.7
2017-Dec-12 03:30N 47°42' W 122°27'2 4.3
2017-Dec-12 02:59N 47°41' W 122°24'0 0.0
2017-Dec-12 02:29N 47°41' W 122°24'0 0.0
2017-Dec-12 01:59N 47°41' W 122°24'0 0.0
2017-Dec-12 01:29N 47°41' W 122°24'0 0.0
2017-Dec-12 00:59N 47°41' W 122°24'0 0.0
2017-Dec-12 00:29N 47°41' W 122°24'0 0.0
2017-Dec-11 23:56N 47°41' W 122°24'0 0.0
2017-Dec-11 23:29N 47°41' W 122°24'0 0.0
2017-Dec-11 22:59N 47°41' W 122°24'0 0.0
2017-Dec-11 22:29N 47°41' W 122°24'0 0.0
2017-Dec-11 21:59N 47°41' W 122°24'0 0.0
2017-Dec-11 21:29N 47°41' W 122°24'0 0.0
2017-Dec-11 20:59N 47°41' W 122°24'0 0.0
2017-Dec-11 20:26N 47°41' W 122°24'0 0.0
2017-Dec-11 19:59N 47°41' W 122°24'0 0.0
2017-Dec-11 19:29N 47°41' W 122°24'0 0.0
2017-Dec-11 18:59N 47°41' W 122°24'0 0.0
2017-Dec-11 18:29N 47°41' W 122°24'0 0.0
2017-Dec-11 17:59N 47°41' W 122°24'0 0.0
2017-Dec-11 17:29N 47°41' W 122°24'0 0.0
2017-Dec-11 16:59N 47°41' W 122°24'0 0.0
2017-Dec-11 16:29N 47°41' W 122°24'0 0.0
2017-Dec-11 15:59N 47°41' W 122°24'0 0.0
2017-Dec-11 15:29N 47°41' W 122°24'0 0.0
2017-Dec-11 14:59N 47°41' W 122°24'0 0.0
2017-Dec-11 14:29N 47°41' W 122°24'0 0.0
2017-Dec-11 13:59N 47°41' W 122°24'0 0.0
2017-Dec-11 13:29N 47°41' W 122°24'0 0.0
2017-Dec-11 12:59N 47°41' W 122°24'0 0.0
2017-Dec-11 12:29N 47°41' W 122°24'0 0.0
2017-Dec-11 11:59N 47°41' W 122°24'0 0.0
2017-Dec-11 11:29N 47°41' W 122°24'0 0.0
2017-Dec-11 10:59N 47°41' W 122°24'0 0.0
2017-Dec-11 10:29N 47°41' W 122°24'0 0.0
2017-Dec-11 09:59N 47°41' W 122°24'0 0.0
2017-Dec-11 09:29N 47°41' W 122°24'0 0.0
2017-Dec-11 08:58N 47°41' W 122°24'0 0.0
2017-Dec-11 08:28N 47°41' W 122°24'0 0.0
2017-Dec-11 07:58N 47°41' W 122°24'0 0.0
2017-Dec-11 07:28N 47°41' W 122°24'0 0.0
2017-Dec-11 06:58N 47°41' W 122°24'0 0.0
2017-Dec-11 06:28N 47°41' W 122°24'0 0.0
2017-Dec-11 05:58N 47°41' W 122°24'0 0.0
2017-Dec-11 05:28N 47°41' W 122°24'0 0.0
2017-Dec-11 04:58N 47°41' W 122°24'0 0.0
2017-Dec-11 04:28N 47°41' W 122°24'0 0.0
2017-Dec-11 03:58N 47°41' W 122°24'0 0.0
2017-Dec-11 03:25N 47°41' W 122°24'0 0.0
2017-Dec-11 02:58N 47°41' W 122°24'0 0.0
2017-Dec-11 02:28N 47°41' W 122°24'0 0.0
2017-Dec-11 01:58N 47°41' W 122°24'0 0.0
2017-Dec-11 01:28N 47°41' W 122°24'1 2.2
2017-Dec-11 01:00N 47°40' W 122°26'3 6.8
2017-Dec-11 00:30N 47°37' W 122°27'3 5.4
2017-Dec-11 00:00N 47°34' W 122°27'2 4.6
2017-Dec-10 23:30N 47°33' W 122°29'0 0.3
2017-Dec-10 23:00N 47°33' W 122°29'0 0.0
2017-Dec-10 22:30N 47°33' W 122°29'0 0.0
2017-Dec-10 22:00N 47°33' W 122°29'0 0.0
2017-Dec-10 21:30N 47°33' W 122°29'1 2.9
2017-Dec-10 21:00N 47°34' W 122°29'3 7.1
2017-Dec-10 20:30N 47°37' W 122°27'3 6.2
2017-Dec-10 20:00N 47°40' W 122°26'1 2.6
2017-Dec-10 19:29N 47°41' W 122°24'0 0.0
2017-Dec-10 18:59N 47°41' W 122°24'0 0.0
2017-Dec-10 18:29N 47°41' W 122°24'0 0.0
2017-Dec-10 17:56N 47°41' W 122°24'0 0.0
2017-Dec-10 17:26N 47°41' W 122°24'0 0.0
2017-Dec-10 16:59N 47°41' W 122°24'0 0.0
2017-Dec-10 16:28N 47°41' W 122°24'0 0.0
2017-Dec-10 15:58N 47°41' W 122°24'0 0.0
2017-Dec-10 15:28N 47°41' W 122°24'0 0.0
2017-Dec-10 14:55N 47°41' W 122°24'0 0.0
2017-Dec-10 14:28N 47°41' W 122°24'0 0.0
2017-Dec-10 13:58N 47°41' W 122°24'0 0.0
2017-Dec-10 13:28N 47°41' W 122°24'0 0.0
2017-Dec-10 12:58N 47°41' W 122°24'0 0.0
2017-Dec-10 12:28N 47°41' W 122°24'0 0.0
2017-Dec-10 11:58N 47°41' W 122°24'0 0.0
2017-Dec-10 11:28N 47°41' W 122°24'0 0.0
2017-Dec-10 10:58N 47°41' W 122°24'0 0.0
2017-Dec-10 10:25N 47°41' W 122°24'0 0.0
2017-Dec-10 09:58N 47°41' W 122°24'0 0.0
2017-Dec-10 09:28N 47°41' W 122°24'0 0.0
2017-Dec-10 08:58N 47°41' W 122°24'0 0.0
2017-Dec-10 08:28N 47°41' W 122°24'0 0.0
2017-Dec-10 07:58N 47°41' W 122°24'0 0.0
2017-Dec-10 07:28N 47°41' W 122°24'0 0.0
2017-Dec-10 06:58N 47°41' W 122°24'0 0.0
2017-Dec-10 06:28N 47°41' W 122°24'0 0.0
2017-Dec-10 05:58N 47°41' W 122°24'0 0.0
2017-Dec-10 05:28N 47°41' W 122°24'0 0.0
2017-Dec-10 04:58N 47°41' W 122°24'0 0.0
2017-Dec-10 04:28N 47°41' W 122°24'0 0.0
2017-Dec-10 03:58N 47°41' W 122°24'0 0.0
2017-Dec-10 03:28N 47°41' W 122°24'0 0.0
2017-Dec-10 02:58N 47°41' W 122°24'0 0.0
2017-Dec-10 02:28N 47°41' W 122°24'0 0.0
2017-Dec-10 01:58N 47°41' W 122°24'0 0.0
2017-Dec-10 01:28N 47°41' W 122°24'0 0.0
2017-Dec-10 00:58N 47°41' W 122°24'0 0.0
2017-Dec-10 00:28N 47°41' W 122°24'0 0.0
2017-Dec-09 23:58N 47°41' W 122°24'0 0.0
2017-Dec-09 23:28N 47°41' W 122°24'0 0.0
2017-Dec-09 22:58N 47°41' W 122°24'0 0.0
2017-Dec-09 22:28N 47°41' W 122°24'0 0.0
2017-Dec-09 21:58N 47°41' W 122°24'0 0.0
2017-Dec-09 21:28N 47°41' W 122°24'0 0.0
2017-Dec-09 20:58N 47°41' W 122°24'0 0.0
2017-Dec-09 20:28N 47°41' W 122°24'0 0.0
2017-Dec-09 19:58N 47°41' W 122°24'0 0.0
2017-Dec-09 19:25N 47°41' W 122°24'0 0.0
2017-Dec-09 18:58N 47°41' W 122°24'0 0.0
2017-Dec-09 18:28N 47°41' W 122°24'0 0.0
2017-Dec-09 17:52N 47°41' W 122°24'0 0.0
2017-Dec-09 17:28N 47°41' W 122°24'0 0.0
2017-Dec-09 16:55N 47°41' W 122°24'0 0.0
2017-Dec-09 16:28N 47°41' W 122°24'0 0.0
2017-Dec-09 15:58N 47°41' W 122°24'0 0.0
2017-Dec-09 15:30N 47°41' W 122°24'0 0.0
2017-Dec-09 15:00N 47°41' W 122°24'0 0.0
2017-Dec-09 14:30N 47°41' W 122°24'0 0.0
2017-Dec-09 14:00N 47°41' W 122°24'0 0.0
2017-Dec-09 13:30N 47°41' W 122°24'0 0.0
2017-Dec-09 13:00N 47°41' W 122°24'0 0.0
2017-Dec-09 12:30N 47°41' W 122°24'0 0.0
2017-Dec-09 12:00N 47°41' W 122°24'0 0.0
2017-Dec-09 11:30N 47°41' W 122°24'0 0.0
2017-Dec-09 11:00N 47°41' W 122°24'0 0.0
2017-Dec-09 10:30N 47°41' W 122°24'0 0.0
2017-Dec-09 10:00N 47°41' W 122°24'0 0.0
2017-Dec-09 09:30N 47°41' W 122°24'0 0.0
2017-Dec-09 09:00N 47°41' W 122°24'0 0.0
2017-Dec-09 08:30N 47°41' W 122°24'0 0.0
2017-Dec-09 08:00N 47°41' W 122°24'0 0.0
2017-Dec-09 07:30N 47°41' W 122°24'0 0.0
2017-Dec-09 07:00N 47°41' W 122°24'0 0.0
2017-Dec-09 06:30N 47°41' W 122°24'0 0.0
2017-Dec-09 06:00N 47°41' W 122°24'0 0.0
2017-Dec-09 05:30N 47°41' W 122°24'0 0.0
2017-Dec-09 05:00N 47°41' W 122°24'0 0.0
2017-Dec-09 04:30N 47°41' W 122°24'0 0.0
2017-Dec-09 04:00N 47°41' W 122°24'0 0.0
2017-Dec-09 03:30N 47°41' W 122°24'0 0.0
2017-Dec-09 03:00N 47°41' W 122°24'0 0.0
2017-Dec-09 02:21N 47°41' W 122°24'0 0.0
2017-Dec-09 02:00N 47°41' W 122°24'0 0.0
2017-Dec-09 01:30N 47°41' W 122°24'0 0.0
2017-Dec-09 00:57N 47°41' W 122°24'0 0.0
2017-Dec-09 00:30N 47°41' W 122°24'0 0.0
2017-Dec-09 00:00N 47°41' W 122°24'0 0.0
2017-Dec-08 23:30N 47°41' W 122°24'0 0.0
2017-Dec-08 23:00N 47°41' W 122°24'0 0.0
2017-Dec-08 22:30N 47°41' W 122°24'0 0.0
2017-Dec-08 22:00N 47°41' W 122°24'0 0.0
2017-Dec-08 21:30N 47°41' W 122°24'0 0.0
2017-Dec-08 21:00N 47°41' W 122°24'0 0.0
2017-Dec-08 20:30N 47°41' W 122°24'0 0.0
2017-Dec-08 19:57N 47°41' W 122°24'0 0.0
2017-Dec-08 19:27N 47°41' W 122°24'0 0.0
2017-Dec-08 19:00N 47°41' W 122°24'0 0.0
2017-Dec-08 18:24N 47°41' W 122°24'0 0.0
2017-Dec-08 18:00N 47°41' W 122°24'0 0.0
2017-Dec-08 17:30N 47°41' W 122°24'0 0.0
2017-Dec-08 17:00N 47°41' W 122°24'0 0.0
2017-Dec-08 16:26N 47°41' W 122°24'0 0.0
2017-Dec-08 15:59N 47°41' W 122°24'0 0.0
2017-Dec-08 15:29N 47°41' W 122°24'0 0.0
2017-Dec-08 14:59N 47°41' W 122°24'0 0.0
2017-Dec-08 14:28N 47°41' W 122°24'0 0.0
2017-Dec-08 13:58N 47°41' W 122°24'0 0.0
2017-Dec-08 13:28N 47°41' W 122°24'0 0.0
2017-Dec-08 12:58N 47°41' W 122°24'0 0.0
2017-Dec-08 12:28N 47°41' W 122°24'0 0.0
2017-Dec-08 11:58N 47°41' W 122°24'0 0.0
2017-Dec-08 11:28N 47°41' W 122°24'0 0.0
2017-Dec-08 10:58N 47°41' W 122°24'0 0.0
2017-Dec-08 10:25N 47°41' W 122°24'0 0.0
2017-Dec-08 09:58N 47°41' W 122°24'0 0.0
2017-Dec-08 09:28N 47°41' W 122°24'0 0.0
2017-Dec-08 08:58N 47°41' W 122°24'0 0.0
2017-Dec-08 08:28N 47°41' W 122°24'0 0.0
2017-Dec-08 07:55N 47°41' W 122°24'0 0.0
2017-Dec-08 07:25N 47°41' W 122°24'0 0.0
2017-Dec-08 06:55N 47°41' W 122°24'  
Track history (hours):
 
Tides and Currents Weather Stations Pressure Air Temp Water Temp Dewpoint Dewpoint Depression Visibility Wind Speed Wind Dir Waves Ship Positions

Saudade

Owner: Osterman, Rob S, Bainbridge Island, WA. More information available from US FCC via Universal Licensing System and Coast Guard Vessel Documentation Center.

Last reported at 2017-Dec-18 06:29 UTC. Time now 2017-Dec-18 06:46 UTC.
Position N 47°41' W 122°24'.

Length 13 m.

Type: Sailing vessel. MMSI: 367754820.

Date/timePositionNaut miles runAvg speedWind from/ knotsBaromVisibWave heightAir tempDewpointWater temp
2017-Dec-18 06:29N 47°41' W 122°24'0 0.0
2017-Dec-18 05:58N 47°41' W 122°24'0 0.0
2017-Dec-18 05:25N 47°41' W 122°24'0 0.0
2017-Dec-18 04:58N 47°41' W 122°24'0 0.0
2017-Dec-18 04:29N 47°41' W 122°24'0 0.0
2017-Dec-18 03:58N 47°41' W 122°24'0 0.0
2017-Dec-18 03:28N 47°41' W 122°24'0 0.0
2017-Dec-18 02:58N 47°41' W 122°24'0 0.0
2017-Dec-18 02:28N 47°41' W 122°24'0 0.0
2017-Dec-18 01:58N 47°41' W 122°24'0 0.0
2017-Dec-18 01:28N 47°41' W 122°24'0 0.0
2017-Dec-18 00:58N 47°41' W 122°24'0 0.0
2017-Dec-18 00:28N 47°41' W 122°24'0 0.0
2017-Dec-17 23:58N 47°41' W 122°24'0 0.0
2017-Dec-17 23:28N 47°41' W 122°24'0 0.0
2017-Dec-17 22:58N 47°41' W 122°24'0 0.0
2017-Dec-17 22:25N 47°41' W 122°24'0 0.0
2017-Dec-17 21:58N 47°41' W 122°24'0 0.0
2017-Dec-17 21:28N 47°41' W 122°24'0 0.0
2017-Dec-17 20:58N 47°41' W 122°24'0 0.0
2017-Dec-17 20:28N 47°41' W 122°24'0 0.0
2017-Dec-17 19:58N 47°41' W 122°24'0 0.0
2017-Dec-17 19:28N 47°41' W 122°24'0 0.0
2017-Dec-17 18:58N 47°41' W 122°24'0 0.0
2017-Dec-17 18:28N 47°41' W 122°24'0 0.0
2017-Dec-17 17:58N 47°41' W 122°24'0 0.0
2017-Dec-17 17:25N 47°41' W 122°24'0 0.0
2017-Dec-17 16:55N 47°41' W 122°24'0 0.0
2017-Dec-17 16:28N 47°41' W 122°24'0 0.0
2017-Dec-17 15:58N 47°41' W 122°24'0 0.0
2017-Dec-17 15:28N 47°41' W 122°24'0 0.0
2017-Dec-17 14:58N 47°41' W 122°24'0 0.0
2017-Dec-17 14:28N 47°41' W 122°24'0 0.0
2017-Dec-17 13:58N 47°41' W 122°24'0 0.0
2017-Dec-17 13:28N 47°41' W 122°24'0 0.0
2017-Dec-17 12:58N 47°41' W 122°24'0 0.0
2017-Dec-17 12:28N 47°41' W 122°24'0 0.0
2017-Dec-17 11:58N 47°41' W 122°24'0 0.0
2017-Dec-17 11:28N 47°41' W 122°24'0 0.0
2017-Dec-17 11:01N 47°41' W 122°24'0 0.0
2017-Dec-17 10:30N 47°41' W 122°24'0 0.0
2017-Dec-17 10:00N 47°41' W 122°24'0 0.0
2017-Dec-17 09:30N 47°41' W 122°24'0 0.0
2017-Dec-17 09:00N 47°41' W 122°24'0 0.0
2017-Dec-17 08:30N 47°41' W 122°24'0 0.0
2017-Dec-17 07:57N 47°41' W 122°24'0 0.0
2017-Dec-17 07:30N 47°41' W 122°24'0 0.0
2017-Dec-17 07:00N 47°41' W 122°24'0 0.0
2017-Dec-17 06:30N 47°41' W 122°24'0 0.0
2017-Dec-17 06:00N 47°41' W 122°24'0 0.0
2017-Dec-17 05:30N 47°41' W 122°24'0 0.0
2017-Dec-17 05:00N 47°41' W 122°24'0 0.0
2017-Dec-17 04:30N 47°41' W 122°24'0 0.0
2017-Dec-17 04:00N 47°41' W 122°24'0 0.0
2017-Dec-17 03:30N 47°41' W 122°24'0 0.0
2017-Dec-17 03:00N 47°41' W 122°24'0 0.0
2017-Dec-17 02:30N 47°41' W 122°24'0 0.0
2017-Dec-17 02:00N 47°41' W 122°24'0 0.0
2017-Dec-17 01:30N 47°41' W 122°24'0 0.0
2017-Dec-17 01:00N 47°41' W 122°24'0 0.0
2017-Dec-17 00:30N 47°41' W 122°24'0 0.0
2017-Dec-17 00:00N 47°41' W 122°24'0 0.0
2017-Dec-16 23:27N 47°41' W 122°24'0 0.0
2017-Dec-16 22:57N 47°41' W 122°24'0 0.0
2017-Dec-16 22:30N 47°41' W 122°24'3 6.3
2017-Dec-16 22:00N 47°44' W 122°26'4 7.6
2017-Dec-16 21:30N 47°47' W 122°28'4 7.9
2017-Dec-16 20:59N 47°51' W 122°29'4 8.1
2017-Dec-16 20:28N 47°55' W 122°31'40 1.7
2017-Dec-15 21:18N 48°16' W 123°22'2 7.0
2017-Dec-15 21:00N 48°18' W 123°23'3 6.9
2017-Dec-15 20:30N 48°21' W 123°23'4 7.3
2017-Dec-15 20:00N 48°25' W 123°24'1 2.3
2017-Dec-15 19:28N 48°25' W 123°22'0 0.0
2017-Dec-15 18:58N 48°25' W 123°22'0 0.0
2017-Dec-15 18:25N 48°25' W 123°22'0 0.0
2017-Dec-15 17:58N 48°25' W 123°22'0 0.0
2017-Dec-15 17:28N 48°25' W 123°22'0 0.0
2017-Dec-15 16:55N 48°25' W 123°22'0 0.0
2017-Dec-15 16:28N 48°25' W 123°22'0 0.0
2017-Dec-15 15:58N 48°25' W 123°22'0 0.0
2017-Dec-15 15:28N 48°25' W 123°22'0 0.0
2017-Dec-15 14:58N 48°25' W 123°22'0 0.0
2017-Dec-15 14:28N 48°25' W 123°22'0 0.0
2017-Dec-15 13:58N 48°25' W 123°22'0 0.0
2017-Dec-15 13:28N 48°25' W 123°22'0 0.0
2017-Dec-15 12:58N 48°25' W 123°22'0 0.0
2017-Dec-15 12:28N 48°25' W 123°22'0 0.0
2017-Dec-15 11:58N 48°25' W 123°22'0 0.0
2017-Dec-15 11:28N 48°25' W 123°22'0 0.0
2017-Dec-15 10:52N 48°25' W 123°22'0 0.0
2017-Dec-15 10:28N 48°25' W 123°22'0 0.0
2017-Dec-15 09:58N 48°25' W 123°22'0 0.0
2017-Dec-15 09:25N 48°25' W 123°22'0 0.0
2017-Dec-15 08:58N 48°25' W 123°22'0 0.0
2017-Dec-15 08:28N 48°25' W 123°22'0 0.0
2017-Dec-15 07:58N 48°25' W 123°22'0 0.0
2017-Dec-15 07:28N 48°25' W 123°22'0 0.0
2017-Dec-15 06:58N 48°25' W 123°22'0 0.0
2017-Dec-15 06:28N 48°25' W 123°22'0 0.0
2017-Dec-15 05:55N 48°25' W 123°22'0 0.0
2017-Dec-15 05:28N 48°25' W 123°22'0 0.0
2017-Dec-15 04:58N 48°25' W 123°22'0 0.0
2017-Dec-15 04:28N 48°25' W 123°22'0 0.0
2017-Dec-15 03:58N 48°25' W 123°22'0 0.0
2017-Dec-15 02:28N 48°25' W 123°22'0 0.0
2017-Dec-15 00:58N 48°25' W 123°22'0 0.0
2017-Dec-15 00:28N 48°25' W 123°22'0 0.0
2017-Dec-14 18:28N 48°25' W 123°22'0 0.0
2017-Dec-14 17:58N 48°25' W 123°22'0 0.0
2017-Dec-14 17:25N 48°25' W 123°22'0 0.0
2017-Dec-14 16:58N 48°25' W 123°22'0 0.0
2017-Dec-14 16:28N 48°25' W 123°22'0 0.0
2017-Dec-14 15:58N 48°25' W 123°22'0 0.0
2017-Dec-14 14:58N 48°25' W 123°22'0 0.0
2017-Dec-14 14:28N 48°25' W 123°22'0 0.0
2017-Dec-14 13:58N 48°25' W 123°22'0 0.0
2017-Dec-14 13:28N 48°25' W 123°22'0 0.0
2017-Dec-14 12:58N 48°25' W 123°22'0 0.0
2017-Dec-14 12:28N 48°25' W 123°22'0 0.0
2017-Dec-14 11:58N 48°25' W 123°22'0 0.0
2017-Dec-14 11:28N 48°25' W 123°22'0 0.0
2017-Dec-14 10:58N 48°25' W 123°22'0 0.0
2017-Dec-14 10:28N 48°25' W 123°22'0 0.0
2017-Dec-14 09:58N 48°25' W 123°22'0 0.0
2017-Dec-14 09:28N 48°25' W 123°22'0 0.0
2017-Dec-14 08:58N 48°25' W 123°22'0 0.0
2017-Dec-14 08:28N 48°25' W 123°22'0 0.0
2017-Dec-14 07:58N 48°25' W 123°22'0 0.0
2017-Dec-14 07:28N 48°25' W 123°22'0 0.0
2017-Dec-14 06:58N 48°25' W 123°22'0 0.0
2017-Dec-14 06:28N 48°25' W 123°22'0 0.0
2017-Dec-14 05:58N 48°25' W 123°22'0 0.0
2017-Dec-14 05:28N 48°25' W 123°22'0 0.0
2017-Dec-14 04:55N 48°25' W 123°22'0 0.0
2017-Dec-14 04:28N 48°25' W 123°22'0 0.0
2017-Dec-14 03:58N 48°25' W 123°22'0 0.0
2017-Dec-14 03:25N 48°25' W 123°22'0 0.0
2017-Dec-14 02:58N 48°25' W 123°22'0 0.0
2017-Dec-14 02:25N 48°25' W 123°22'0 0.0
2017-Dec-14 01:58N 48°25' W 123°22'0 0.0
2017-Dec-14 01:28N 48°25' W 123°22'0 0.0
2017-Dec-14 00:58N 48°25' W 123°22'0 0.0
2017-Dec-14 00:28N 48°25' W 123°22'0 1.0
2017-Dec-14 00:00N 48°25' W 123°23'2 4.8
2017-Dec-13 23:30N 48°23' W 123°21'4 8.6
2017-Dec-13 23:00N 48°21' W 123°15'37 1.6
2017-Dec-13 00:40N 47°57' W 122°33'2 9.5
2017-Dec-13 00:28N 47°56' W 122°32'4 8.4
2017-Dec-13 00:00N 47°52' W 122°30'4 7.5
2017-Dec-12 23:30N 47°49' W 122°28'1 2.5
2017-Dec-12 22:58N 47°48' W 122°30'2 5.2
2017-Dec-12 22:30N 47°46' W 122°28'3 7.1
2017-Dec-12 22:00N 47°43' W 122°31'0 0.0
2017-Dec-12 03:55N 47°43' W 122°31'3 6.7
2017-Dec-12 03:30N 47°42' W 122°27'2 4.3
2017-Dec-12 02:59N 47°41' W 122°24'0 0.0
2017-Dec-12 02:29N 47°41' W 122°24'0 0.0
2017-Dec-12 01:59N 47°41' W 122°24'0 0.0
2017-Dec-12 01:29N 47°41' W 122°24'0 0.0
2017-Dec-12 00:59N 47°41' W 122°24'0 0.0
2017-Dec-12 00:29N 47°41' W 122°24'0 0.0
2017-Dec-11 23:56N 47°41' W 122°24'0 0.0
2017-Dec-11 23:29N 47°41' W 122°24'0 0.0
2017-Dec-11 22:59N 47°41' W 122°24'0 0.0
2017-Dec-11 22:29N 47°41' W 122°24'0 0.0
2017-Dec-11 21:59N 47°41' W 122°24'0 0.0
2017-Dec-11 21:29N 47°41' W 122°24'0 0.0
2017-Dec-11 20:59N 47°41' W 122°24'0 0.0
2017-Dec-11 20:26N 47°41' W 122°24'0 0.0
2017-Dec-11 19:59N 47°41' W 122°24'0 0.0
2017-Dec-11 19:29N 47°41' W 122°24'0 0.0
2017-Dec-11 18:59N 47°41' W 122°24'0 0.0
2017-Dec-11 18:29N 47°41' W 122°24'0 0.0
2017-Dec-11 17:59N 47°41' W 122°24'0 0.0
2017-Dec-11 17:29N 47°41' W 122°24'0 0.0
2017-Dec-11 16:59N 47°41' W 122°24'0 0.0
2017-Dec-11 16:29N 47°41' W 122°24'0 0.0
2017-Dec-11 15:59N 47°41' W 122°24'0 0.0
2017-Dec-11 15:29N 47°41' W 122°24'0 0.0
2017-Dec-11 14:59N 47°41' W 122°24'0 0.0
2017-Dec-11 14:29N 47°41' W 122°24'0 0.0
2017-Dec-11 13:59N 47°41' W 122°24'0 0.0
2017-Dec-11 13:29N 47°41' W 122°24'0 0.0
2017-Dec-11 12:59N 47°41' W 122°24'0 0.0
2017-Dec-11 12:29N 47°41' W 122°24'0 0.0
2017-Dec-11 11:59N 47°41' W 122°24'0 0.0
2017-Dec-11 11:29N 47°41' W 122°24'0 0.0
2017-Dec-11 10:59N 47°41' W 122°24'0 0.0
2017-Dec-11 10:29N 47°41' W 122°24'0 0.0
2017-Dec-11 09:59N 47°41' W 122°24'0 0.0
2017-Dec-11 09:29N 47°41' W 122°24'0 0.0
2017-Dec-11 08:58N 47°41' W 122°24'0 0.0
2017-Dec-11 08:28N 47°41' W 122°24'0 0.0
2017-Dec-11 07:58N 47°41' W 122°24'0 0.0
2017-Dec-11 07:28N 47°41' W 122°24'0 0.0
2017-Dec-11 06:58N 47°41' W 122°24'0 0.0
2017-Dec-11 06:28N 47°41' W 122°24'0 0.0
2017-Dec-11 05:58N 47°41' W 122°24'0 0.0
2017-Dec-11 05:28N 47°41' W 122°24'0 0.0
2017-Dec-11 04:58N 47°41' W 122°24'0 0.0
2017-Dec-11 04:28N 47°41' W 122°24'0 0.0
2017-Dec-11 03:58N 47°41' W 122°24'0 0.0
2017-Dec-11 03:25N 47°41' W 122°24'0 0.0
2017-Dec-11 02:58N 47°41' W 122°24'0 0.0
2017-Dec-11 02:28N 47°41' W 122°24'0 0.0
2017-Dec-11 01:58N 47°41' W 122°24'0 0.0
2017-Dec-11 01:28N 47°41' W 122°24'1 2.2
2017-Dec-11 01:00N 47°40' W 122°26'3 6.8
2017-Dec-11 00:30N 47°37' W 122°27'3 5.4
2017-Dec-11 00:00N 47°34' W 122°27'2 4.6
2017-Dec-10 23:30N 47°33' W 122°29'0 0.3
2017-Dec-10 23:00N 47°33' W 122°29'0 0.0
2017-Dec-10 22:30N 47°33' W 122°29'0 0.0
2017-Dec-10 22:00N 47°33' W 122°29'0 0.0
2017-Dec-10 21:30N 47°33' W 122°29'1 2.9
2017-Dec-10 21:00N 47°34' W 122°29'3 7.1
2017-Dec-10 20:30N 47°37' W 122°27'3 6.2
2017-Dec-10 20:00N 47°40' W 122°26'1 2.6
2017-Dec-10 19:29N 47°41' W 122°24'0 0.0
2017-Dec-10 18:59N 47°41' W 122°24'0 0.0
2017-Dec-10 18:29N 47°41' W 122°24'0 0.0
2017-Dec-10 17:56N 47°41' W 122°24'0 0.0
2017-Dec-10 17:26N 47°41' W 122°24'0 0.0
2017-Dec-10 16:59N 47°41' W 122°24'0 0.0
2017-Dec-10 16:28N 47°41' W 122°24'0 0.0
2017-Dec-10 15:58N 47°41' W 122°24'0 0.0
2017-Dec-10 15:28N 47°41' W 122°24'0 0.0
2017-Dec-10 14:55N 47°41' W 122°24'0 0.0
2017-Dec-10 14:28N 47°41' W 122°24'0 0.0
2017-Dec-10 13:58N 47°41' W 122°24'0 0.0
2017-Dec-10 13:28N 47°41' W 122°24'0 0.0
2017-Dec-10 12:58N 47°41' W 122°24'0 0.0
2017-Dec-10 12:28N 47°41' W 122°24'0 0.0
2017-Dec-10 11:58N 47°41' W 122°24'0 0.0
2017-Dec-10 11:28N 47°41' W 122°24'0 0.0
2017-Dec-10 10:58N 47°41' W 122°24'0 0.0
2017-Dec-10 10:25N 47°41' W 122°24'0 0.0
2017-Dec-10 09:58N 47°41' W 122°24'0 0.0
2017-Dec-10 09:28N 47°41' W 122°24'0 0.0
2017-Dec-10 08:58N 47°41' W 122°24'0 0.0
2017-Dec-10 08:28N 47°41' W 122°24'0 0.0
2017-Dec-10 07:58N 47°41' W 122°24'0 0.0
2017-Dec-10 07:28N 47°41' W 122°24'0 0.0
2017-Dec-10 06:58N 47°41' W 122°24'0 0.0
2017-Dec-10 06:28N 47°41' W 122°24'0 0.0
2017-Dec-10 05:58N 47°41' W 122°24'0 0.0
2017-Dec-10 05:28N 47°41' W 122°24'0 0.0
2017-Dec-10 04:58N 47°41' W 122°24'0 0.0
2017-Dec-10 04:28N 47°41' W 122°24'0 0.0
2017-Dec-10 03:58N 47°41' W 122°24'0 0.0
2017-Dec-10 03:28N 47°41' W 122°24'0 0.0
2017-Dec-10 02:58N 47°41' W 122°24'0 0.0
2017-Dec-10 02:28N 47°41' W 122°24'0 0.0
2017-Dec-10 01:58N 47°41' W 122°24'0 0.0
2017-Dec-10 01:28N 47°41' W 122°24'0 0.0
2017-Dec-10 00:58N 47°41' W 122°24'0 0.0
2017-Dec-10 00:28N 47°41' W 122°24'0 0.0
2017-Dec-09 23:58N 47°41' W 122°24'0 0.0
2017-Dec-09 23:28N 47°41' W 122°24'0 0.0
2017-Dec-09 22:58N 47°41' W 122°24'0 0.0
2017-Dec-09 22:28N 47°41' W 122°24'0 0.0
2017-Dec-09 21:58N 47°41' W 122°24'0 0.0
2017-Dec-09 21:28N 47°41' W 122°24'0 0.0
2017-Dec-09 20:58N 47°41' W 122°24'0 0.0
2017-Dec-09 20:28N 47°41' W 122°24'0 0.0
2017-Dec-09 19:58N 47°41' W 122°24'0 0.0
2017-Dec-09 19:25N 47°41' W 122°24'0 0.0
2017-Dec-09 18:58N 47°41' W 122°24'0 0.0
2017-Dec-09 18:28N 47°41' W 122°24'0 0.0
2017-Dec-09 17:52N 47°41' W 122°24'0 0.0
2017-Dec-09 17:28N 47°41' W 122°24'0 0.0
2017-Dec-09 16:55N 47°41' W 122°24'0 0.0
2017-Dec-09 16:28N 47°41' W 122°24'0 0.0
2017-Dec-09 15:58N 47°41' W 122°24'0 0.0
2017-Dec-09 15:30N 47°41' W 122°24'0 0.0
2017-Dec-09 15:00N 47°41' W 122°24'0 0.0
2017-Dec-09 14:30N 47°41' W 122°24'0 0.0
2017-Dec-09 14:00N 47°41' W 122°24'0 0.0
2017-Dec-09 13:30N 47°41' W 122°24'0 0.0
2017-Dec-09 13:00N 47°41' W 122°24'0 0.0
2017-Dec-09 12:30N 47°41' W 122°24'0 0.0
2017-Dec-09 12:00N 47°41' W 122°24'0 0.0
2017-Dec-09 11:30N 47°41' W 122°24'0 0.0
2017-Dec-09 11:00N 47°41' W 122°24'0 0.0
2017-Dec-09 10:30N 47°41' W 122°24'0 0.0
2017-Dec-09 10:00N 47°41' W 122°24'0 0.0
2017-Dec-09 09:30N 47°41' W 122°24'0 0.0
2017-Dec-09 09:00N 47°41' W 122°24'0 0.0
2017-Dec-09 08:30N 47°41' W 122°24'0 0.0
2017-Dec-09 08:00N 47°41' W 122°24'0 0.0
2017-Dec-09 07:30N 47°41' W 122°24'0 0.0
2017-Dec-09 07:00N 47°41' W 122°24'0 0.0
2017-Dec-09 06:30N 47°41' W 122°24'0 0.0
2017-Dec-09 06:00N 47°41' W 122°24'0 0.0
2017-Dec-09 05:30N 47°41' W 122°24'0 0.0
2017-Dec-09 05:00N 47°41' W 122°24'0 0.0
2017-Dec-09 04:30N 47°41' W 122°24'0 0.0
2017-Dec-09 04:00N 47°41' W 122°24'0 0.0
2017-Dec-09 03:30N 47°41' W 122°24'0 0.0
2017-Dec-09 03:00N 47°41' W 122°24'0 0.0
2017-Dec-09 02:21N 47°41' W 122°24'0 0.0
2017-Dec-09 02:00N 47°41' W 122°24'0 0.0
2017-Dec-09 01:30N 47°41' W 122°24'0 0.0
2017-Dec-09 00:57N 47°41' W 122°24'0 0.0
2017-Dec-09 00:30N 47°41' W 122°24'0 0.0
2017-Dec-09 00:00N 47°41' W 122°24'0 0.0
2017-Dec-08 23:30N 47°41' W 122°24'0 0.0
2017-Dec-08 23:00N 47°41' W 122°24'0 0.0
2017-Dec-08 22:30N 47°41' W 122°24'0 0.0
2017-Dec-08 22:00N 47°41' W 122°24'0 0.0
2017-Dec-08 21:30N 47°41' W 122°24'0 0.0
2017-Dec-08 21:00N 47°41' W 122°24'0 0.0
2017-Dec-08 20:30N 47°41' W 122°24'0 0.0
2017-Dec-08 19:57N 47°41' W 122°24'0 0.0
2017-Dec-08 19:27N 47°41' W 122°24'0 0.0
2017-Dec-08 19:00N 47°41' W 122°24'0 0.0
2017-Dec-08 18:24N 47°41' W 122°24'0 0.0
2017-Dec-08 18:00N 47°41' W 122°24'0 0.0
2017-Dec-08 17:30N 47°41' W 122°24'0 0.0
2017-Dec-08 17:00N 47°41' W 122°24'0 0.0
2017-Dec-08 16:26N 47°41' W 122°24'0 0.0
2017-Dec-08 15:59N 47°41' W 122°24'0 0.0
2017-Dec-08 15:29N 47°41' W 122°24'0 0.0
2017-Dec-08 14:59N 47°41' W 122°24'0 0.0
2017-Dec-08 14:28N 47°41' W 122°24'0 0.0
2017-Dec-08 13:58N 47°41' W 122°24'0 0.0
2017-Dec-08 13:28N 47°41' W 122°24'0 0.0
2017-Dec-08 12:58N 47°41' W 122°24'0 0.0
2017-Dec-08 12:28N 47°41' W 122°24'0 0.0
2017-Dec-08 11:58N 47°41' W 122°24'0 0.0
2017-Dec-08 11:28N 47°41' W 122°24'0 0.0
2017-Dec-08 10:58N 47°41' W 122°24'0 0.0
2017-Dec-08 10:25N 47°41' W 122°24'0 0.0
2017-Dec-08 09:58N 47°41' W 122°24'0 0.0
2017-Dec-08 09:28N 47°41' W 122°24'0 0.0
2017-Dec-08 08:58N 47°41' W 122°24'0 0.0
2017-Dec-08 08:28N 47°41' W 122°24'0 0.0
2017-Dec-08 07:55N 47°41' W 122°24'0 0.0
2017-Dec-08 07:25N 47°41' W 122°24'0 0.0
2017-Dec-08 06:55N 47°41' W 122°24'  

Dump ship's entire track history